Time;durP1;ratioP1;P1;durP2;ratioP2;P2;SDS_P1;SDS_P2;PMS_P1;PMS_P2;Temp;Humidity;BMP_temperature;BMP_pressure;BME280_temperature;BME280_humidity;BME280_pressure;Samples;Min_cycle;Max_cycle;Signal;HPM_P1;HPM_P2
2021/10/05 00:01:47;;;;;;;32.75;22.13;;;;;;;14.07;79.78;100728.68;1624251;88;21122;-81
2021/10/05 00:04:13;;;;;;;34.40;24.10;;;;;;;14.05;79.77;100728.52;1624106;88;21129;-81
2021/10/05 00:06:39;;;;;;;36.20;23.73;;;;;;;14.04;79.82;100720.98;1624126;88;21074;-81
2021/10/05 00:09:05;;;;;;;34.10;23.95;;;;;;;14.04;79.85;100715.61;1640263;87;21042;-81
2021/10/05 00:11:31;;;;;;;32.70;24.75;;;;;;;14.05;79.87;100719.97;1594006;90;21103;-81
2021/10/05 00:13:57;;;;;;;32.75;24.47;;;;;;;14.05;79.88;100715.95;1593907;89;21859;-81
2021/10/05 00:16:23;;;;;;;35.40;24.87;;;;;;;14.04;79.90;100712.13;1593860;89;21012;-81
2021/10/05 00:18:50;;;;;;;32.13;24.85;;;;;;;14.01;79.90;100715.48;1602261;88;21062;-81
2021/10/05 00:21:17;;;;;;;38.33;27.52;;;;;;;13.99;79.92;100711.33;1618867;88;21054;-81
2021/10/05 00:23:43;;;;;;;32.65;24.47;;;;;;;13.98;79.97;100707.81;1619095;88;21564;-81
2021/10/05 00:26:09;;;;;;;30.82;22.98;;;;;;;14.00;80.00;100711.66;1619031;88;21815;-80
2021/10/05 00:28:35;;;;;;;35.23;23.25;;;;;;;14.00;80.02;100707.10;1615909;86;21055;-81
2021/10/05 00:31:01;;;;;;;35.58;23.65;;;;;;;13.98;80.01;100700.27;1607599;89;21020;-81
2021/10/05 00:33:27;;;;;;;33.88;22.10;;;;;;;13.97;80.06;100698.59;1607735;89;21334;-81
2021/10/05 00:35:53;;;;;;;32.63;21.60;;;;;;;13.96;80.07;100691.59;1641418;87;21039;-81
2021/10/05 00:38:19;;;;;;;34.30;22.00;;;;;;;13.92;80.08;100684.42;1641377;87;21132;-81
2021/10/05 00:40:45;;;;;;;29.57;22.58;;;;;;;13.92;80.13;100682.25;1641484;87;21670;-81
2021/10/05 00:43:11;;;;;;;35.20;23.27;;;;;;;13.92;80.14;100682.25;1582606;89;21041;-81
2021/10/05 00:45:38;;;;;;;36.48;23.67;;;;;;;13.92;80.18;100684.92;1584031;90;21525;-81
2021/10/05 00:48:05;;;;;;;37.03;25.72;;;;;;;13.90;80.20;100682.92;1584096;89;21584;-81
2021/10/05 00:50:32;;;;;;;33.15;25.00;;;;;;;13.89;80.24;100681.28;1579950;89;21112;-82
2021/10/05 00:52:58;;;;;;;36.40;24.98;;;;;;;13.90;80.28;100670.86;1579541;90;21066;-82
2021/10/05 00:55:24;;;;;;;41.42;25.15;;;;;;;13.89;80.27;100669.22;1592473;90;21051;-82
2021/10/05 00:57:51;;;;;;;35.90;25.32;;;;;;;13.89;80.31;100667.37;1592611;88;21067;-81
2021/10/05 01:00:17;;;;;;;33.25;25.12;;;;;;;13.90;80.34;100669.02;1592533;90;21555;-81
2021/10/05 01:02:44;;;;;;;36.45;24.43;;;;;;;13.89;80.37;100665.19;1592440;90;21167;-81
2021/10/05 01:05:10;;;;;;;32.17;23.70;;;;;;;13.86;80.38;100667.71;1592298;88;21036;-81
2021/10/05 01:07:36;;;;;;;33.92;23.67;;;;;;;13.86;80.42;100665.03;1592517;90;21507;-81
2021/10/05 01:10:03;;;;;;;34.33;24.30;;;;;;;13.87;80.45;100665.87;1592476;90;21079;-81
2021/10/05 01:12:29;;;;;;;35.28;24.12;;;;;;;13.88;80.45;100672.91;1592602;90;21071;-81
2021/10/05 01:14:55;;;;;;;34.60;25.17;;;;;;;13.87;80.48;100660.00;1592569;90;21079;-81
2021/10/05 01:17:21;;;;;;;33.25;24.43;;;;;;;13.86;80.49;100657.52;1592497;90;21405;-81
2021/10/05 01:19:47;;;;;;;32.85;23.95;;;;;;;13.84;80.54;100655.02;1592666;90;21093;-81
2021/10/05 01:22:13;;;;;;;28.95;22.00;;;;;;;13.84;80.58;100653.67;1592555;89;21564;-82
2021/10/05 01:24:39;;;;;;;35.95;23.98;;;;;;;13.83;80.60;100652.50;1592639;89;21043;-81
2021/10/05 01:27:06;;;;;;;31.05;22.40;;;;;;;13.83;80.62;100647.14;1592536;90;21176;-82
2021/10/05 01:29:33;;;;;;;33.40;23.35;;;;;;;13.82;80.64;100640.14;1606879;88;21094;-81
2021/10/05 01:32:01;;;;;;;33.00;23.87;;;;;;;13.82;80.65;100636.12;1621872;88;21063;-81
2021/10/05 01:34:27;;;;;;;30.77;22.70;;;;;;;13.79;80.67;100636.49;1620980;88;21050;-81
2021/10/05 01:36:54;;;;;;;33.80;22.05;;;;;;;13.77;80.70;100631.30;1622046;88;21082;-81
2021/10/05 01:39:35;;;;;;;35.13;22.55;;;;;;;13.74;80.71;100637.03;1621554;88;21083;-81
2021/10/05 01:42:09;;;;;;;32.35;21.00;;;;;;;13.71;80.75;100634.73;1621725;88;21136;-81
2021/10/05 01:44:36;;;;;;;31.20;22.62;;;;;;;13.71;80.78;100637.91;1618528;88;21172;-81
2021/10/05 01:47:04;;;;;;;28.98;20.85;;;;;;;13.69;80.79;100631.38;1621801;87;21070;-81
2021/10/05 01:49:30;;;;;;;33.18;21.45;;;;;;;13.68;80.85;100635.10;1607643;88;21512;-81
2021/10/05 01:51:56;;;;;;;31.87;20.95;;;;;;;13.66;80.86;100633.59;1591683;90;21148;-81
2021/10/05 01:54:22;;;;;;;31.23;20.72;;;;;;;13.67;80.89;100637.95;1591714;90;21026;-81
2021/10/05 01:56:48;;;;;;;25.70;19.90;;;;;;;13.65;80.93;100627.40;1591610;90;21043;-81
2021/10/05 01:59:14;;;;;;;29.52;20.70;;;;;;;13.66;80.96;100629.58;1592573;88;21153;-81
2021/10/05 02:01:40;;;;;;;31.23;22.25;;;;;;;13.64;80.99;100630.28;1592376;90;21587;-81
2021/10/05 02:04:08;;;;;;;30.68;21.73;;;;;;;13.61;81.02;100627.47;1592257;90;21758;-81
2021/10/05 02:06:34;;;;;;;30.45;20.65;;;;;;;13.58;81.04;100617.63;1592359;90;21054;-81
2021/10/05 02:09:00;;;;;;;31.55;21.45;;;;;;;13.54;81.07;100606.95;1592426;90;21047;-81
2021/10/05 02:11:26;;;;;;;31.23;21.90;;;;;;;13.46;81.09;100599.32;1592381;90;20904;-81
2021/10/05 02:13:52;;;;;;;29.00;21.65;;;;;;;13.42;81.11;100600.70;1592327;90;21558;-81
2021/10/05 02:16:18;;;;;;;30.48;21.73;;;;;;;13.40;81.18;100602.74;1592426;90;21767;-81
2021/10/05 02:18:46;;;;;;;32.53;22.48;;;;;;;13.37;81.22;100604.42;1592202;90;21094;-81
2021/10/05 02:21:15;;;;;;;36.15;21.25;;;;;;;13.34;81.25;100601.28;1592341;90;21508;-81
2021/10/05 02:26:26;;;;;;;33.40;22.17;;;;;;;13.28;81.36;100592.14;1592331;90;21110;-81
2021/10/05 02:28:52;;;;;;;35.30;24.50;;;;;;;13.27;81.38;100593.64;1592890;85;21036;-80
2021/10/05 02:31:18;;;;;;;36.15;23.67;;;;;;;13.27;81.42;100591.80;1611934;88;20955;-81
2021/10/05 02:33:44;;;;;;;35.35;23.10;;;;;;;13.25;81.42;100591.16;1612147;89;21051;-81
2021/10/05 02:36:10;;;;;;;40.50;24.02;;;;;;;13.23;81.46;100585.67;1612387;89;21531;-81
2021/10/05 02:38:36;;;;;;;36.83;24.45;;;;;;;13.19;81.50;100583.87;1612013;89;21119;-81
2021/10/05 02:41:02;;;;;;;29.90;23.83;;;;;;;13.16;81.52;100580.19;1612272;89;21078;-81
2021/10/05 02:43:28;;;;;;;32.98;23.05;;;;;;;13.10;81.57;100570.21;1612227;89;21468;-81
2021/10/05 02:45:54;;;;;;;32.73;24.18;;;;;;;13.08;81.60;100575.41;1612158;89;21111;-81
2021/10/05 02:48:20;;;;;;;31.75;23.87;;;;;;;13.06;81.63;100572.89;1612162;88;21071;-81
2021/10/05 02:50:46;;;;;;;30.27;22.62;;;;;;;13.05;81.67;100569.91;1619233;88;21027;-81
2021/10/05 02:53:12;;;;;;;35.23;23.42;;;;;;;13.01;81.67;100565.93;1619296;88;21159;-82
2021/10/05 02:55:40;;;;;;;33.73;24.27;;;;;;;12.98;81.70;100564.96;1619187;88;21042;-82
2021/10/05 02:58:06;;;;;;;32.83;25.37;;;;;;;12.95;81.77;100562.62;1619369;87;21094;-81
2021/10/05 03:00:32;;;;;;;32.70;24.37;;;;;;;12.90;81.81;100562.34;1624109;88;21034;-81
2021/10/05 03:02:58;;;;;;;34.65;22.93;;;;;;;12.86;81.84;100559.70;1651431;86;21095;-82
2021/10/05 03:05:24;;;;;;;32.08;23.00;;;;;;;12.82;81.93;100561.07;1651406;86;21784;-81
2021/10/05 03:07:50;;;;;;;35.48;22.75;;;;;;;12.76;81.95;100557.78;1651353;86;20999;-81
2021/10/05 03:10:16;;;;;;;33.78;22.73;;;;;;;12.70;81.99;100560.66;1662392;85;21094;-81
2021/10/05 03:12:42;;;;;;;35.10;22.98;;;;;;;12.63;82.03;100569.07;1671598;85;21104;-81
2021/10/05 03:15:08;;;;;;;36.60;23.25;;;;;;;12.58;82.08;100562.61;1649422;86;21052;-81
2021/10/05 03:17:34;;;;;;;36.73;23.60;;;;;;;12.51;82.12;100559.31;1646813;87;21828;-81
2021/10/05 03:20:00;;;;;;;35.13;25.68;;;;;;;12.46;82.15;100554.98;1646725;87;21098;-81
2021/10/05 03:22:26;;;;;;;48.58;34.10;;;;;;;12.41;82.22;100538.66;1646953;86;21534;-81
2021/10/05 03:24:52;;;;;;;44.50;35.83;;;;;;;12.36;82.25;100529.48;1646825;87;21549;-81
2021/10/05 03:27:18;;;;;;;51.33;36.48;;;;;;;12.31;82.31;100519.35;1646813;87;21056;-81
2021/10/05 03:29:44;;;;;;;51.75;35.38;;;;;;;12.26;82.35;100514.19;1646690;85;21894;-81
2021/10/05 03:32:10;;;;;;;43.80;31.52;;;;;;;12.24;82.43;100509.04;1646836;87;21024;-81
2021/10/05 03:34:37;;;;;;;42.45;27.93;;;;;;;12.21;82.49;100512.04;1646725;87;21342;-81
2021/10/05 03:37:03;;;;;;;39.65;26.40;;;;;;;12.19;82.52;100495.86;1646914;87;21590;-81
2021/10/05 03:39:29;;;;;;;36.53;26.07;;;;;;;12.18;82.58;100499.53;1646497;87;21143;-81
2021/10/05 03:41:55;;;;;;;39.55;27.42;;;;;;;12.16;82.61;100498.39;1646859;86;21654;-81
2021/10/05 03:44:21;;;;;;;33.38;24.50;;;;;;;12.15;82.66;100498.05;1646736;86;21044;-81
2021/10/05 03:46:47;;;;;;;41.42;25.88;;;;;;;12.13;82.70;100489.39;1646853;87;21048;-81
2021/10/05 03:49:13;;;;;;;37.70;25.52;;;;;;;12.11;82.73;100488.72;1646283;87;21027;-81
2021/10/05 03:51:39;;;;;;;40.63;26.40;;;;;;;12.09;82.79;100477.39;1645605;87;21035;-81
2021/10/05 03:54:05;;;;;;;52.78;27.02;;;;;;;12.07;82.82;100478.05;1645652;87;21610;-81
2021/10/05 03:56:31;;;;;;;67.60;27.65;;;;;;;12.06;82.86;100481.76;1645665;87;21039;-81
2021/10/05 03:58:57;;;;;;;48.75;25.88;;;;;;;12.03;82.88;100478.11;1645598;86;21015;-81
2021/10/05 04:01:23;;;;;;;63.45;27.67;;;;;;;12.00;82.92;100469.08;1645677;86;21031;-81
2021/10/05 04:03:49;;;;;;;81.78;29.00;;;;;;;11.98;82.95;100468.44;1645729;87;21031;-81
2021/10/05 04:06:15;;;;;;;63.92;28.70;;;;;;;11.98;83.00;100467.09;1646359;87;21171;-81
2021/10/05 04:08:41;;;;;;;51.70;28.73;;;;;;;11.95;83.04;100465.62;1585963;90;21565;-81
2021/10/05 04:11:08;;;;;;;45.15;30.37;;;;;;;11.95;83.07;100467.45;1586556;90;21566;-81
2021/10/05 04:13:34;;;;;;;46.48;30.90;;;;;;;11.95;83.11;100464.78;1586380;90;21061;-81
2021/10/05 04:16:00;;;;;;;44.63;30.12;;;;;;;11.94;83.17;100463.95;1586438;90;21114;-81
2021/10/05 04:18:26;;;;;;;47.88;32.33;;;;;;;11.93;83.20;100454.76;1586390;90;21066;-81
2021/10/05 04:20:52;;;;;;;48.15;32.23;;;;;;;11.93;83.24;100441.39;1586485;90;20993;-81
2021/10/05 04:23:18;;;;;;;53.68;36.25;;;;;;;11.92;83.27;100445.09;1586412;90;21527;-81
2021/10/05 04:25:44;;;;;;;60.65;42.43;;;;;;;11.92;83.31;100441.09;1586445;90;21133;-81
2021/10/05 04:28:10;;;;;;;59.90;43.87;;;;;;;11.90;83.36;100433.23;1586231;90;21097;-81
2021/10/05 04:30:37;;;;;;;65.62;47.67;;;;;;;11.88;83.38;100425.91;1583108;90;21152;-81
2021/10/05 04:33:03;;;;;;;65.72;48.10;;;;;;;11.86;83.42;100420.40;1579606;90;21053;-81
2021/10/05 04:35:29;;;;;;;58.17;40.10;;;;;;;11.84;83.44;100407.73;1579991;90;21046;-81
2021/10/05 04:37:55;;;;;;;50.63;35.92;;;;;;;11.83;83.46;100407.40;1579885;90;21074;-81
2021/10/05 04:40:20;;;;;;;48.40;33.67;;;;;;;11.83;83.48;100412.74;1579949;90;21058;-81
2021/10/05 04:42:46;;;;;;;51.95;34.13;;;;;;;11.83;83.52;100407.40;1579953;90;21256;-81
2021/10/05 04:45:12;;;;;;;51.02;35.45;;;;;;;11.86;83.57;100401.70;1579767;90;21567;-81
2021/10/05 04:47:38;;;;;;;52.25;35.40;;;;;;;11.90;83.60;100411.02;1579818;90;21534;-81
2021/10/05 04:50:06;;;;;;;53.60;34.53;;;;;;;11.92;83.62;100408.52;1579865;90;21058;-81
2021/10/05 04:52:32;;;;;;;53.92;37.48;;;;;;;11.98;83.66;100405.63;1579876;90;21094;-81
2021/10/05 04:54:58;;;;;;;48.92;35.05;;;;;;;12.01;83.68;100391.91;1579853;90;21062;-81
2021/10/05 04:57:24;;;;;;;62.38;36.35;;;;;;;12.06;83.72;100392.20;1579805;90;21082;-81
2021/10/05 04:59:50;;;;;;;51.28;36.10;;;;;;;12.13;83.74;100382.96;1579835;90;21045;-81
2021/10/05 05:02:16;;;;;;;52.08;36.60;;;;;;;12.19;83.76;100385.73;1579828;89;21065;-81
2021/10/05 05:04:42;;;;;;;57.98;37.93;;;;;;;12.26;83.81;100379.16;1579900;90;21114;-81
2021/10/05 05:07:08;;;;;;;55.52;38.90;;;;;;;12.33;83.81;100374.75;1579881;90;21122;-81
2021/10/05 05:09:34;;;;;;;59.30;39.13;;;;;;;12.40;83.87;100382.37;1579869;90;21554;-81
2021/10/05 05:12:00;;;;;;;56.65;38.60;;;;;;;12.47;83.89;100381.46;1579959;90;21320;-82
2021/10/05 05:14:26;;;;;;;59.77;38.90;;;;;;;12.53;83.91;100380.72;1580051;90;21625;-81
2021/10/05 05:16:52;;;;;;;56.77;38.65;;;;;;;12.59;83.92;100371.16;1579726;89;21142;-81
2021/10/05 05:19:18;;;;;;;58.90;37.33;;;;;;;12.64;83.95;100359.37;1581142;90;21125;-81
2021/10/05 05:21:44;;;;;;;53.52;38.10;;;;;;;12.70;83.94;100357.83;1596489;89;21099;-81
2021/10/05 05:24:10;;;;;;;50.98;37.60;;;;;;;12.76;83.98;100358.41;1596592;88;21050;-81
2021/10/05 05:26:36;;;;;;;57.33;38.75;;;;;;;12.84;83.97;100362.34;1596521;88;21059;-81
2021/10/05 05:29:02;;;;;;;60.10;40.35;;;;;;;12.92;84.00;100352.86;1596799;89;21673;-82
2021/10/05 05:31:28;;;;;;;52.70;36.85;;;;;;;13.00;83.99;100345.56;1613814;88;21185;-81
2021/10/05 05:33:54;;;;;;;59.08;38.10;;;;;;;13.10;83.99;100343.95;1651339;86;20969;-81
2021/10/05 05:36:20;;;;;;;57.80;36.83;;;;;;;13.19;83.96;100348.20;1651362;86;21044;-81
2021/10/05 05:38:46;;;;;;;54.33;37.58;;;;;;;13.27;83.95;100345.39;1651369;86;21117;-81
2021/10/05 05:41:12;;;;;;;55.40;37.25;;;;;;;13.33;83.93;100347.84;1651569;86;21052;-81
2021/10/05 05:43:38;;;;;;;57.17;36.93;;;;;;;13.39;83.91;100337.70;1650728;86;21553;-81
2021/10/05 05:46:04;;;;;;;49.48;35.83;;;;;;;13.44;83.89;100338.78;1651061;87;21622;-81
2021/10/05 05:48:30;;;;;;;49.75;36.15;;;;;;;13.48;83.84;100336.05;1634858;86;21078;-81
2021/10/05 05:50:56;;;;;;;49.93;36.13;;;;;;;13.56;83.81;100332.93;1622853;88;21034;-81
2021/10/05 05:53:22;;;;;;;56.05;36.48;;;;;;;13.62;83.79;100330.31;1623511;88;21043;-81
2021/10/05 05:55:48;;;;;;;48.30;35.58;;;;;;;13.69;83.73;100336.56;1623710;87;21139;-81
2021/10/05 05:58:15;;;;;;;47.95;36.00;;;;;;;13.75;83.68;100330.97;1623613;88;21042;-82
2021/10/05 06:00:42;;;;;;;52.08;36.48;;;;;;;13.81;83.61;100323.49;1624160;86;21046;-81
2021/10/05 06:03:10;;;;;;;52.78;37.00;;;;;;;13.87;83.58;100327.56;1623502;88;21030;-83
2021/10/05 06:05:36;;;;;;;49.10;35.48;;;;;;;13.94;83.52;100328.95;1624100;88;21061;-82
2021/10/05 06:08:02;;;;;;;48.70;35.73;;;;;;;14.01;83.44;100324.48;1593269;88;21186;-82
2021/10/05 06:10:28;;;;;;;52.67;35.55;;;;;;;14.07;83.38;100323.73;1568072;91;21065;-82
2021/10/05 06:12:54;;;;;;;49.20;35.70;;;;;;;14.13;83.31;100319.42;1568200;91;21110;-82
2021/10/05 06:15:21;;;;;;;48.28;35.70;;;;;;;14.18;83.28;100320.48;1568242;90;21159;-82
2021/10/05 06:17:47;;;;;;;49.70;35.88;;;;;;;14.22;83.17;100314.22;1568294;91;21098;-82
2021/10/05 06:20:25;;;;;;;50.10;35.20;;;;;;;14.28;83.12;100308.09;1543135;93;21748;-83
2021/10/05 06:22:51;;;;;;;47.70;34.78;;;;;;;14.32;83.04;100306.14;1543069;91;21042;-82
2021/10/05 06:25:22;;;;;;;48.73;35.98;;;;;;;14.42;82.95;100302.66;1543184;93;21546;-82
2021/10/05 06:27:49;;;;;;;46.33;33.25;;;;;;;14.64;82.85;100293.98;1542759;93;21073;-83
2021/10/05 06:30:15;;;;;;;53.33;35.30;;;;;;;14.95;82.73;100289.50;1543958;90;21118;-82
2021/10/05 06:32:42;;;;;;;47.30;34.35;;;;;;;15.48;82.44;100259.05;1561571;91;21568;-82
2021/10/05 06:35:08;;;;;;;46.00;32.38;;;;;;;15.81;82.10;100267.66;1609230;89;21035;-82
2021/10/05 06:37:34;;;;;;;48.35;32.00;;;;;;;15.81;82.10;100267.66;1614051;89;21062;-82
2021/10/05 06:40:01;;;;;;;42.98;30.52;;;;;;;15.97;82.04;100268.06;1585497;90;21522;-82
2021/10/05 06:42:32;;;;;;;38.50;29.98;;;;;;;16.10;81.83;100271.27;1585608;90;21496;-82
2021/10/05 06:44:55;;;;;;;42.80;30.72;;;;;;;16.25;81.62;100275.92;1585200;90;21099;-83
2021/10/05 06:47:21;;;;;;;42.67;30.90;;;;;;;16.37;81.35;100266.66;1613954;88;21019;-82
2021/10/05 06:49:47;;;;;;;36.85;28.47;;;;;;;16.50;81.15;100260.72;1585812;90;21569;-83
2021/10/05 06:52:13;;;;;;;39.70;28.20;;;;;;;16.65;80.91;100254.29;1614045;89;21612;-82
2021/10/05 06:54:39;;;;;;;35.50;26.55;;;;;;;16.76;80.62;100242.86;1612198;89;21078;-82
2021/10/05 06:57:05;;;;;;;39.70;28.38;;;;;;;16.76;80.35;100242.34;1612233;88;21756;-83
2021/10/05 06:59:32;;;;;;;37.17;27.27;;;;;;;16.63;80.13;100240.22;1612056;88;38637;-82
2021/10/05 07:01:58;;;;;;;37.63;27.58;;;;;;;16.60;79.92;100238.80;1611904;88;21007;-83
2021/10/05 07:04:24;;;;;;;38.40;25.52;;;;;;;16.79;79.69;100229.78;1612278;89;21092;-82
2021/10/05 07:06:50;;;;;;;39.65;27.07;;;;;;;16.87;79.35;100231.41;1612202;89;21098;-83
2021/10/05 07:09:16;;;;;;;35.25;27.40;;;;;;;16.94;79.08;100222.78;1612373;89;21109;-83
2021/10/05 07:11:44;;;;;;;41.20;26.68;;;;;;;16.98;78.85;100203.80;1612172;89;21027;-82
2021/10/05 07:14:10;;;;;;;33.75;26.68;;;;;;;17.03;78.65;100203.95;1612312;89;21492;-82
2021/10/05 07:16:36;;;;;;;39.08;27.77;;;;;;;17.16;78.43;100197.68;1612192;89;21571;-82
2021/10/05 07:19:02;;;;;;;38.67;26.85;;;;;;;17.32;78.16;100197.97;1612257;89;21099;-82
2021/10/05 07:21:28;;;;;;;33.20;24.75;;;;;;;17.44;77.79;100191.36;1612254;89;21505;-82
2021/10/05 07:23:54;;;;;;;32.28;24.67;;;;;;;17.56;77.45;100190.96;1612364;88;21047;-82
2021/10/05 07:26:20;;;;;;;30.50;23.55;;;;;;;17.65;77.05;100188.83;1612204;89;21034;-83
2021/10/05 07:28:46;;;;;;;28.75;22.48;;;;;;;17.78;76.74;100175.21;1612115;89;21424;-83
2021/10/05 07:31:12;;;;;;;32.33;24.50;;;;;;;17.87;76.36;100175.24;1613321;87;21039;-82
2021/10/05 07:33:39;;;;;;;30.60;23.32;;;;;;;17.96;75.94;100170.67;1635856;87;21159;-83
2021/10/05 07:36:05;;;;;;;30.32;23.35;;;;;;;18.07;75.65;100173.68;1642464;87;21019;-82
2021/10/05 07:38:31;;;;;;;30.35;22.40;;;;;;;18.12;75.21;100170.59;1611726;88;21587;-83
2021/10/05 07:40:57;;;;;;;32.33;22.40;;;;;;;18.14;74.83;100166.33;1619727;88;21050;-83
2021/10/05 07:43:23;;;;;;;30.27;23.30;;;;;;;18.18;74.47;100158.92;1618602;88;21062;-83
2021/10/05 07:45:51;;;;;;;31.93;23.07;;;;;;;18.21;74.14;100159.81;1612635;89;21197;-83
2021/10/05 07:48:16;;;;;;;28.85;21.65;;;;;;;18.36;73.92;100152.17;1612983;88;21519;-82
2021/10/05 07:50:42;;;;;;;26.70;21.60;;;;;;;18.39;73.45;100154.41;1619461;87;21050;-83
2021/10/05 07:53:08;;;;;;;30.45;20.68;;;;;;;18.42;73.09;100148.55;1619408;88;21071;-83
2021/10/05 07:55:34;;;;;;;27.02;19.95;;;;;;;18.45;72.81;100131.89;1619471;87;21129;-83
2021/10/05 07:58:01;;;;;;;28.60;20.85;;;;;;;18.52;72.54;100126.95;1615933;88;21160;-83
2021/10/05 08:00:27;;;;;;;29.63;22.05;;;;;;;18.55;72.24;100122.44;1612712;88;21035;-83
2021/10/05 08:02:53;;;;;;;37.00;22.58;;;;;;;18.66;72.02;100116.27;1613059;88;21588;-83
2021/10/05 08:05:20;;;;;;;28.87;20.27;;;;;;;18.71;71.73;100108.31;1600925;88;21042;-82
2021/10/05 08:07:47;;;;;;;30.75;20.95;;;;;;;18.72;71.41;100104.53;1619568;88;21059;-82
2021/10/05 08:10:13;;;;;;;29.85;19.92;;;;;;;18.79;71.23;100099.86;1617154;88;21627;-83
2021/10/05 08:12:40;;;;;;;27.25;19.48;;;;;;;18.90;71.01;100085.56;1612871;88;21558;-83
2021/10/05 08:15:07;;;;;;;23.80;18.45;;;;;;;19.00;70.76;100088.52;1612712;88;21117;-83
2021/10/05 08:17:33;;;;;;;29.35;19.60;;;;;;;19.05;70.38;100080.55;1612750;89;21067;-83
2021/10/05 08:19:59;;;;;;;23.57;18.73;;;;;;;19.14;69.94;100088.59;1613028;89;21121;-83
2021/10/05 08:22:25;;;;;;;23.05;17.60;;;;;;;19.16;69.61;100089.20;1613699;88;21799;-82
2021/10/05 08:24:51;;;;;;;23.60;19.40;;;;;;;19.20;69.29;100085.50;1614544;87;21001;-83
2021/10/05 08:27:17;;;;;;;25.10;18.80;;;;;;;19.25;69.04;100087.79;1616364;87;21096;-83
2021/10/05 08:29:45;;;;;;;23.40;18.05;;;;;;;19.34;68.91;100086.41;1613141;87;20910;-82
2021/10/05 08:32:11;;;;;;;23.10;17.37;;;;;;;19.47;68.83;100079.12;1613913;87;21029;-82
2021/10/05 08:34:38;;;;;;;25.23;18.12;;;;;;;19.48;68.47;100076.73;1615321;87;21382;-82
2021/10/05 08:37:04;;;;;;;22.22;16.95;;;;;;;19.52;68.35;100072.50;1613914;87;21137;-83
2021/10/05 08:39:30;;;;;;;26.68;17.60;;;;;;;19.65;68.21;100068.19;1626933;87;21093;-83
2021/10/05 08:41:56;;;;;;;25.27;16.87;;;;;;;19.66;67.98;100065.78;1613183;86;20888;-82
2021/10/05 08:44:24;;;;;;;24.90;16.42;;;;;;;19.61;67.56;100061.59;1611684;89;21638;-84
2021/10/05 08:46:50;;;;;;;26.25;16.25;;;;;;;19.64;67.32;100047.59;1612541;88;21273;-83
2021/10/05 08:49:18;;;;;;;20.37;16.57;;;;;;;19.61;66.95;100039.42;1613351;88;21003;-85
2021/10/05 08:51:44;;;;;;;27.35;15.72;;;;;;;19.70;66.86;100045.31;1589751;88;21526;-84
2021/10/05 08:54:10;;;;;;;22.82;16.30;;;;;;;19.68;66.36;100026.59;1615591;88;21079;-83
2021/10/05 08:56:37;;;;;;;24.15;15.58;;;;;;;19.68;66.05;100019.83;1611032;88;21063;-83
2021/10/05 08:59:03;;;;;;;25.43;16.45;;;;;;;19.80;66.02;100015.75;1612488;88;21833;-84
2021/10/05 09:01:33;;;;;;;22.98;15.00;;;;;;;19.87;65.83;100005.61;1590316;88;20947;-84
2021/10/05 09:04:00;;;;;;;20.50;14.80;;;;;;;19.97;65.73;100003.11;1564542;90;21609;-83
2021/10/05 09:06:26;;;;;;;20.40;15.00;;;;;;;19.99;65.49;100005.03;1565055;90;21091;-84
2021/10/05 09:08:55;;;;;;;21.90;14.87;;;;;;;20.06;65.44;100003.00;1588070;88;21095;-83
2021/10/05 09:11:26;;;;;;;24.65;14.58;;;;;;;20.17;65.43;99995.38;1613043;87;21267;-83
2021/10/05 09:13:54;;;;;;;19.73;14.98;;;;;;;20.23;65.22;99990.33;1611774;89;21044;-83
2021/10/05 09:16:27;;;;;;;17.55;13.65;;;;;;;20.26;64.96;99988.52;1612078;89;21545;-84
2021/10/05 09:19:16;;;;;;;16.25;13.15;;;;;;;20.31;64.80;99984.56;1612821;89;21080;-83
2021/10/05 09:21:47;;;;;;;23.22;13.03;;;;;;;20.36;64.55;99983.31;1612955;89;20954;-82
2021/10/05 09:24:28;;;;;;;15.60;12.25;;;;;;;20.50;64.53;99976.22;1612683;89;21442;-83
2021/10/05 09:27:01;;;;;;;17.07;12.30;;;;;;;20.63;64.43;99973.19;1611800;89;21525;-82
2021/10/05 09:29:30;;;;;;;20.92;13.40;;;;;;;20.74;64.30;99981.25;1611244;89;21057;-84
2021/10/05 09:32:04;;;;;;;18.60;12.70;;;;;;;20.85;64.21;99983.59;1615105;88;21117;-81
2021/10/05 09:34:54;;;;;;;18.50;12.03;;;;;;;20.93;63.92;99979.11;1619740;88;21489;-83
2021/10/05 09:37:33;;;;;;;16.52;11.15;;;;;;;20.92;63.71;99973.39;1620147;87;21576;-82
2021/10/05 09:40:12;;;;;;;14.47;11.27;;;;;;;20.92;63.34;99969.33;1620236;88;21080;-82
2021/10/05 09:42:40;;;;;;;18.25;12.53;;;;;;;20.96;63.15;99971.84;1620025;87;21117;-83
2021/10/05 09:45:09;;;;;;;17.12;12.33;;;;;;;20.94;62.80;99965.83;1619862;88;21138;-83
2021/10/05 09:47:44;;;;;;;18.67;12.13;;;;;;;20.99;62.70;99963.20;1620517;88;21114;-82
2021/10/05 09:50:21;;;;;;;19.07;12.25;;;;;;;20.99;62.38;99953.71;1618922;88;21712;-83
2021/10/05 09:52:50;;;;;;;16.57;11.90;;;;;;;20.99;62.33;99960.48;1617390;88;21106;-83
2021/10/05 09:55:19;;;;;;;;;;;;;;;21.08;62.42;99955.45;1619849;88;21102;-83
2021/10/05 09:57:45;;;;;;;15.30;10.75;;;;;;;21.13;62.26;99950.97;1610255;89;20318;-83
2021/10/05 10:00:12;;;;;;;15.38;11.57;;;;;;;21.25;62.34;99951.66;1590385;90;20928;-83
2021/10/05 10:02:39;;;;;;;16.73;10.80;;;;;;;21.35;62.17;99950.47;1610357;89;22275;-82
2021/10/05 10:05:07;;;;;;;15.88;10.25;;;;;;;21.40;61.80;99943.73;1590331;90;21109;-82
2021/10/05 10:07:38;;;;;;;16.05;11.10;;;;;;;21.52;61.81;99940.09;1593270;90;21146;-82
2021/10/05 10:10:11;;;;;;;14.65;9.85;;;;;;;21.63;61.68;99943.22;1649293;87;21108;-83
2021/10/05 10:12:47;;;;;;;15.32;9.63;;;;;;;21.68;61.47;99947.33;1649489;87;21068;-82
2021/10/05 10:15:13;;;;;;;14.03;8.90;;;;;;;21.68;61.04;99940.55;1649331;87;22228;-82
2021/10/05 10:17:40;;;;;;;15.58;9.55;;;;;;;21.66;60.69;99935.92;1649504;87;21042;-82
2021/10/05 10:20:24;;;;;;;16.65;8.70;;;;;;;21.70;60.61;99939.77;1649560;87;21069;-83
2021/10/05 10:22:51;;;;;;;16.75;8.80;;;;;;;21.80;60.60;99933.09;1649721;87;20950;-82
2021/10/05 10:25:29;;;;;;;13.78;9.20;;;;;;;21.88;60.23;99932.66;1649642;87;21511;-83
2021/10/05 10:27:57;;;;;;;12.75;8.83;;;;;;;21.91;59.82;99921.31;1648930;87;21575;-83
2021/10/05 10:30:28;;;;;;;14.47;8.18;;;;;;;22.01;59.70;99921.41;1654618;85;21525;-83
2021/10/05 10:33:01;;;;;;;12.50;8.35;;;;;;;22.03;59.40;99908.38;1646561;85;21002;-82
2021/10/05 10:35:28;;;;;;;16.10;8.50;;;;;;;22.10;59.10;99908.17;1645596;87;21480;-81
2021/10/05 10:37:54;;;;;;;17.50;7.97;;;;;;;22.18;58.85;99909.07;1647738;85;20961;-82
2021/10/05 10:40:34;;;;;;;10.60;7.97;;;;;;;22.28;58.93;99911.34;1643411;85;21731;-82
2021/10/05 10:43:14;;;;;;;;;;;;;;;22.33;58.47;99911.41;1646977;87;21055;-82
2021/10/05 10:46:00;;;;;;;14.25;8.55;;;;;;;22.36;58.02;99890.50;1644957;87;20187;-82
2021/10/05 10:48:35;;;;;;;13.75;10.08;;;;;;;22.42;57.87;99888.63;1645416;87;21431;-83
2021/10/05 10:51:16;;;;;;;17.87;8.98;;;;;;;22.50;57.73;99894.13;1645257;87;21621;-83
2021/10/05 10:53:44;;;;;;;13.53;8.73;;;;;;;22.50;57.42;99888.69;1645465;87;21878;-84
2021/10/05 10:56:10;;;;;;;10.78;7.72;;;;;;;22.48;57.06;99894.94;1645371;87;21464;-84
2021/10/05 10:58:40;;;;;;;12.33;8.35;;;;;;;22.55;57.05;99881.95;1617450;87;21054;-84
2021/10/05 11:01:10;;;;;;;16.25;7.45;;;;;;;22.62;56.99;99882.55;1645424;87;21027;-84
2021/10/05 11:03:36;;;;;;;;;;;;;;;22.68;56.95;99881.52;1648587;86;21022;-84
2021/10/05 11:06:16;;;;;;;13.88;8.08;;;;;;;22.76;56.92;99862.80;1646661;87;22511;-84
2021/10/05 11:08:59;;;;;;;11.78;7.83;;;;;;;22.74;56.12;99869.06;1618428;87;21600;-84
2021/10/05 11:11:43;;;;;;;11.20;7.47;;;;;;;22.78;55.96;99865.27;1646567;87;21051;-84
2021/10/05 11:14:16;;;;;;;13.53;8.18;;;;;;;22.85;55.92;99867.22;1646605;85;21048;-84
2021/10/05 11:16:42;;;;;;;9.95;7.58;;;;;;;22.88;55.67;99855.27;1646201;87;21052;-84